Time,TemperatureF,DewpointF,PressureIn,WindDirection,WindDirectionDegrees,WindSpeedMPH,WindSpeedGustMPH,Humidity,HourlyPrecipIn,Conditions,Clouds,dailyrainin,SolarRadiationWatts/m^2,SoftwareType,DateUTC
2013-02-04 00:02:00,30.2,25.4,30.19,NNW,335,0.0,1.0,82,0.00,,,0.00,0,Wunderground v.1.15,2013-02-04 05:02:00,
2013-02-04 00:03:00,30.2,25.4,30.19,NNW,335,0.0,1.0,82,0.00,,,0.00,0,Wunderground v.1.15,2013-02-04 05:03:00,
2013-02-04 00:04:00,30.2,25.4,30.19,NNW,335,0.0,1.0,82,0.00,,,0.00,0,Wunderground v.1.15,2013-02-04 05:04:00,
2013-02-04 00:05:00,30.1,25.3,30.19,NNW,335,0.0,1.0,82,0.00,,,0.00,0,Wunderground v.1.15,2013-02-04 05:05:00,
2013-02-04 00:10:00,30.0,25.2,30.18,NNW,335,0.0,0.0,82,0.00,,,0.00,0,Wunderground v.1.15,2013-02-04 05:10:00,
2013-02-04 00:15:00,29.9,25.1,30.18,NNW,335,0.0,0.0,82,0.00,,,0.00,0,Wunderground v.1.15,2013-02-04 05:15:00,
2013-02-04 00:21:00,29.8,25.3,30.18,NNW,335,0.0,1.0,83,0.00,,,0.00,0,Wunderground v.1.15,2013-02-04 05:21:00,
2013-02-04 00:26:00,29.7,25.2,30.18,NNW,335,0.0,1.0,83,0.00,,,0.00,0,Wunderground v.1.15,2013-02-04 05:26:00,
2013-02-04 00:32:00,29.6,25.1,30.18,WNW,289,0.0,2.0,83,0.00,,,0.00,0,Wunderground v.1.15,2013-02-04 05:32:00,
2013-02-04 00:38:00,29.4,24.9,30.18,NW,315,0.0,2.0,83,0.00,,,0.00,0,Wunderground v.1.15,2013-02-04 05:38:00,
2013-02-04 00:43:00,29.2,24.7,30.19,NW,315,0.0,0.0,83,0.00,,,0.00,0,Wunderground v.1.15,2013-02-04 05:43:00,
2013-02-04 00:48:00,29.1,24.9,30.18,NW,315,0.0,1.0,84,0.00,,,0.00,0,Wunderground v.1.15,2013-02-04 05:48:00,
2013-02-04 00:54:00,29.0,24.8,30.18,NW,315,2.0,2.0,84,0.00,,,0.00,0,Wunderground v.1.15,2013-02-04 05:54:00,
2013-02-04 01:00:00,29.0,24.8,30.18,WSW,248,2.0,2.0,84,0.00,,,0.00,0,Wunderground v.1.15,2013-02-04 06:00:00,
2013-02-04 01:06:00,29.0,24.8,30.18,West,277,0.0,2.0,84,0.00,,,0.00,0,Wunderground v.1.15,2013-02-04 06:06:00,
2013-02-04 01:11:00,28.9,24.7,30.18,West,277,0.0,1.0,84,0.00,,,0.00,0,Wunderground v.1.15,2013-02-04 06:11:00,
2013-02-04 01:17:00,28.9,24.7,30.18,NW,308,2.0,4.0,84,0.00,,,0.00,0,Wunderground v.1.15,2013-02-04 06:17:00,
2013-02-04 01:23:00,28.9,25.0,30.17,NW,308,0.0,2.0,85,0.00,,,0.00,0,Wunderground v.1.15,2013-02-04 06:23:00,
2013-02-04 01:28:00,28.9,25.0,30.18,NW,308,2.0,2.0,85,0.00,,,0.00,0,Wunderground v.1.15,2013-02-04 06:28:00,
2013-02-04 01:33:00,28.9,25.0,30.18,NW,308,0.0,2.0,85,0.00,,,0.00,0,Wunderground v.1.15,2013-02-04 06:33:00,
2013-02-04 01:39:00,28.8,24.6,30.18,NW,318,3.0,3.0,84,0.00,,,0.00,0,Wunderground v.1.15,2013-02-04 06:39:00,
2013-02-04 01:44:00,28.9,24.7,30.18,WNW,290,1.0,3.0,84,0.00,,,0.00,0,Wunderground v.1.15,2013-02-04 06:44:00,
2013-02-04 01:50:00,28.9,24.7,30.18,WNW,292,4.0,4.0,84,0.00,,,0.00,0,Wunderground v.1.15,2013-02-04 06:50:00,
2013-02-04 01:55:00,28.8,24.6,30.17,West,277,0.0,4.0,84,0.00,,,0.00,0,Wunderground v.1.15,2013-02-04 06:55:00,
2013-02-04 02:00:00,28.9,24.7,30.17,WNW,290,3.0,3.0,84,0.00,,,0.00,0,Wunderground v.1.15,2013-02-04 07:00:00,
2013-02-04 02:05:00,29.1,24.6,30.17,WNW,282,4.0,5.0,83,0.00,,,0.00,0,Wunderground v.1.15,2013-02-04 07:05:00,
2013-02-04 02:10:00,29.2,24.7,30.16,WNW,300,1.0,2.0,83,0.00,,,0.00,0,Wunderground v.1.15,2013-02-04 07:10:00,
2013-02-04 02:15:00,29.1,24.3,30.16,NNW,340,2.0,4.0,82,0.00,,,0.00,0,Wunderground v.1.15,2013-02-04 07:15:00,
2013-02-04 02:20:00,29.2,24.4,30.16,WNW,298,0.0,1.0,82,0.00,,,0.00,0,Wunderground v.1.15,2013-02-04 07:20:00,
2013-02-04 02:25:00,29.2,24.4,30.16,WNW,293,1.0,2.0,82,0.00,,,0.00,0,Wunderground v.1.15,2013-02-04 07:25:00,
2013-02-04 02:30:00,29.1,24.3,30.16,WSW,250,3.0,4.0,82,0.00,,,0.00,0,Wunderground v.1.15,2013-02-04 07:30:00,
2013-02-04 02:35:00,29.1,24.3,30.16,WNW,294,4.0,4.0,82,0.00,,,0.00,0,Wunderground v.1.15,2013-02-04 07:35:00,
2013-02-04 02:40:00,29.2,24.1,30.16,West,265,0.0,2.0,81,0.00,,,0.00,0,Wunderground v.1.15,2013-02-04 07:40:00,
2013-02-04 02:45:00,29.2,24.1,30.16,West,265,0.0,2.0,81,0.00,,,0.00,0,Wunderground v.1.15,2013-02-04 07:45:00,
2013-02-04 02:50:00,29.2,24.1,30.16,WNW,303,3.0,4.0,81,0.00,,,0.00,0,Wunderground v.1.15,2013-02-04 07:50:00,
2013-02-04 02:55:00,29.2,24.1,30.16,West,273,4.0,6.0,81,0.00,,,0.00,0,Wunderground v.1.15,2013-02-04 07:55:00,
2013-02-04 03:00:00,29.2,24.1,30.16,West,276,1.0,5.0,81,0.00,,,0.00,0,Wunderground v.1.15,2013-02-04 08:00:00,
2013-02-04 03:05:00,29.2,24.1,30.16,West,273,0.0,5.0,81,0.00,,,0.00,0,Wunderground v.1.15,2013-02-04 08:05:00,
2013-02-04 03:10:00,29.2,23.8,30.16,West,262,0.0,1.0,80,0.00,,,0.00,0,Wunderground v.1.15,2013-02-04 08:10:00,
2013-02-04 03:15:00,29.2,23.8,30.16,WNW,284,2.0,4.0,80,0.00,,,0.00,0,Wunderground v.1.15,2013-02-04 08:15:00,
2013-02-04 03:20:00,29.3,23.9,30.16,WNW,284,0.0,1.0,80,0.00,,,0.00,0,Wunderground v.1.15,2013-02-04 08:20:00,
2013-02-04 03:25:00,29.2,23.8,30.16,WNW,284,0.0,2.0,80,0.00,,,0.00,0,Wunderground v.1.15,2013-02-04 08:25:00,
2013-02-04 03:30:00,28.8,24.0,30.16,WNW,284,0.0,0.0,82,0.00,,,0.00,0,Wunderground v.1.15,2013-02-04 08:30:00,
2013-02-04 03:35:00,28.6,23.8,30.15,WNW,284,0.0,1.0,82,0.00,,,0.00,0,Wunderground v.1.15,2013-02-04 08:35:00,
2013-02-04 03:40:00,28.4,23.6,30.16,WNW,284,0.0,0.0,82,0.00,,,0.00,0,Wunderground v.1.15,2013-02-04 08:40:00,
2013-02-04 03:45:00,28.0,23.5,30.16,WNW,284,0.0,0.0,83,0.00,,,0.00,0,Wunderground v.1.15,2013-02-04 08:45:00,
2013-02-04 03:50:00,27.6,23.4,30.16,WNW,284,0.0,0.0,84,0.00,,,0.00,0,Wunderground v.1.15,2013-02-04 08:50:00,
2013-02-04 03:55:00,27.4,23.5,30.17,WNW,284,0.0,0.0,85,0.00,,,0.00,0,Wunderground v.1.15,2013-02-04 08:55:00,
2013-02-04 04:00:00,27.1,23.2,30.17,WNW,284,0.0,0.0,85,0.00,,,0.00,0,Wunderground v.1.15,2013-02-04 09:00:00,
2013-02-04 04:05:00,26.7,22.8,30.16,WNW,284,0.0,1.0,85,0.00,,,0.00,0,Wunderground v.1.15,2013-02-04 09:05:00,
2013-02-04 04:10:00,26.5,22.9,30.16,WNW,284,0.0,0.0,86,0.00,,,0.00,0,Wunderground v.1.15,2013-02-04 09:10:00,
2013-02-04 04:15:00,26.3,23.0,30.15,WNW,284,0.0,0.0,87,0.00,,,0.00,0,Wunderground v.1.15,2013-02-04 09:15:00,
2013-02-04 04:20:00,26.1,22.8,30.15,WNW,284,0.0,0.0,87,0.00,,,0.00,0,Wunderground v.1.15,2013-02-04 09:20:00,
2013-02-04 04:25:00,26.0,22.9,30.14,WNW,284,0.0,0.0,88,0.00,,,0.00,0,Wunderground v.1.15,2013-02-04 09:25:00,
2013-02-04 04:30:00,25.9,22.8,30.15,WNW,284,0.0,0.0,88,0.00,,,0.00,0,Wunderground v.1.15,2013-02-04 09:30:00,
2013-02-04 04:36:00,25.8,22.7,30.14,WNW,284,0.0,0.0,88,0.00,,,0.00,0,Wunderground v.1.15,2013-02-04 09:36:00,
2013-02-04 04:41:00,25.7,22.9,30.14,WNW,284,0.0,0.0,89,0.00,,,0.00,0,Wunderground v.1.15,2013-02-04 09:41:00,
2013-02-04 04:46:00,25.7,22.9,30.14,WNW,284,0.0,0.0,89,0.00,,,0.00,0,Wunderground v.1.15,2013-02-04 09:46:00,
2013-02-04 04:51:00,25.5,22.7,30.14,WNW,284,0.0,0.0,89,0.00,,,0.00,0,Wunderground v.1.15,2013-02-04 09:51:00,
2013-02-04 04:56:00,25.4,22.6,30.14,WNW,284,0.0,0.0,89,0.00,,,0.00,0,Wunderground v.1.15,2013-02-04 09:56:00,
2013-02-04 05:01:00,25.3,22.5,30.14,WNW,284,0.0,0.0,89,0.00,,,0.00,0,Wunderground v.1.15,2013-02-04 10:01:00,
2013-02-04 05:06:00,25.2,22.4,30.14,WNW,284,0.0,0.0,89,0.00,,,0.00,0,Wunderground v.1.15,2013-02-04 10:06:00,
2013-02-04 05:11:00,25.1,22.3,30.14,WNW,284,0.0,0.0,89,0.00,,,0.00,0,Wunderground v.1.15,2013-02-04 10:11:00,
2013-02-04 05:16:00,25.0,22.2,30.14,WNW,284,0.0,0.0,89,0.00,,,0.00,0,Wunderground v.1.15,2013-02-04 10:16:00,
2013-02-04 05:21:00,24.9,22.1,30.14,WNW,284,0.0,0.0,89,0.00,,,0.00,0,Wunderground v.1.15,2013-02-04 10:21:00,
2013-02-04 05:26:00,24.7,22.2,30.13,WNW,284,0.0,0.0,90,0.00,,,0.00,0,Wunderground v.1.15,2013-02-04 10:26:00,
2013-02-04 05:31:00,24.7,22.2,30.14,WNW,284,0.0,0.0,90,0.00,,,0.00,0,Wunderground v.1.15,2013-02-04 10:31:00,
2013-02-04 05:36:00,24.6,22.1,30.14,WNW,284,0.0,0.0,90,0.00,,,0.00,0,Wunderground v.1.15,2013-02-04 10:36:00,
2013-02-04 05:41:00,24.5,22.0,30.15,WNW,284,0.0,0.0,90,0.00,,,0.00,0,Wunderground v.1.15,2013-02-04 10:41:00,
2013-02-04 05:46:00,24.4,21.9,30.16,WNW,284,0.0,2.0,90,0.00,,,0.00,0,Wunderground v.1.15,2013-02-04 10:46:00,
2013-02-04 05:51:00,24.4,22.2,30.16,WNW,284,0.0,0.0,91,0.00,,,0.00,0,Wunderground v.1.15,2013-02-04 10:51:00,
2013-02-04 05:56:00,24.4,22.2,30.16,WNW,284,0.0,2.0,91,0.00,,,0.00,0,Wunderground v.1.15,2013-02-04 10:56:00,
2013-02-04 06:01:00,24.5,22.2,30.16,WNW,284,0.0,1.0,91,0.00,,,0.00,0,Wunderground v.1.15,2013-02-04 11:01:00,
2013-02-04 06:06:00,24.5,22.2,30.16,WNW,284,0.0,1.0,91,0.00,,,0.00,0,Wunderground v.1.15,2013-02-04 11:06:00,
2013-02-04 06:11:00,24.5,22.2,30.16,WNW,284,0.0,0.0,91,0.00,,,0.00,0,Wunderground v.1.15,2013-02-04 11:11:00,
2013-02-04 06:16:00,24.5,22.2,30.17,WNW,284,0.0,0.0,91,0.00,,,0.00,0,Wunderground v.1.15,2013-02-04 11:16:00,
2013-02-04 06:21:00,24.5,22.2,30.16,WNW,284,0.0,0.0,91,0.00,,,0.00,0,Wunderground v.1.15,2013-02-04 11:21:00,
2013-02-04 06:26:00,24.4,22.4,30.17,WNW,284,0.0,2.0,92,0.00,,,0.00,0,Wunderground v.1.15,2013-02-04 11:26:00,
2013-02-04 06:31:00,24.4,22.4,30.17,WNW,284,0.0,0.0,92,0.00,,,0.00,0,Wunderground v.1.15,2013-02-04 11:31:00,
2013-02-04 06:36:00,24.2,22.2,30.17,WNW,284,0.0,0.0,92,0.00,,,0.00,0,Wunderground v.1.15,2013-02-04 11:36:00,
2013-02-04 06:41:00,24.1,22.1,30.16,WNW,284,0.0,1.0,92,0.00,,,0.00,0,Wunderground v.1.15,2013-02-04 11:41:00,
2013-02-04 06:46:00,24.0,22.0,30.16,WNW,284,0.0,1.0,92,0.00,,,0.00,0,Wunderground v.1.15,2013-02-04 11:46:00,
2013-02-04 06:51:00,24.0,22.0,30.17,WNW,284,0.0,0.0,92,0.00,,,0.00,0,Wunderground v.1.15,2013-02-04 11:51:00,
2013-02-04 06:56:00,24.1,22.1,30.17,SSE,147,2.0,5.0,92,0.00,,,0.00,0,Wunderground v.1.15,2013-02-04 11:56:00,
2013-02-04 07:01:00,24.2,22.5,30.17,SSE,147,0.0,2.0,93,0.00,,,0.00,0,Wunderground v.1.15,2013-02-04 12:01:00,
2013-02-04 07:06:00,24.2,22.5,30.17,SE,146,0.0,4.0,93,0.00,,,0.00,0,Wunderground v.1.15,2013-02-04 12:06:00,
2013-02-04 07:11:00,24.4,22.7,30.17,East,96,0.0,0.0,93,0.00,,,0.00,0,Wunderground v.1.15,2013-02-04 12:11:00,
2013-02-04 07:16:00,24.5,22.8,30.18,East,96,0.0,0.0,93,0.00,,,0.00,0,Wunderground v.1.15,2013-02-04 12:16:00,
2013-02-04 07:21:00,24.6,22.9,30.18,East,96,2.0,2.0,93,0.00,,,0.00,0,Wunderground v.1.15,2013-02-04 12:21:00,
2013-02-04 07:26:00,24.7,23.0,30.19,East,96,0.0,2.0,93,0.00,,,0.00,0,Wunderground v.1.15,2013-02-04 12:26:00,
2013-02-04 07:31:00,24.7,23.0,30.19,East,96,0.0,0.0,93,0.00,,,0.00,0,Wunderground v.1.15,2013-02-04 12:31:00,
2013-02-04 07:36:00,24.6,22.9,30.19,East,96,0.0,0.0,93,0.00,,,0.00,5,Wunderground v.1.15,2013-02-04 12:36:00,
2013-02-04 07:41:00,24.6,22.9,30.18,East,96,0.0,0.0,93,0.00,,,0.00,7,Wunderground v.1.15,2013-02-04 12:41:00,
2013-02-04 07:46:00,24.7,23.0,30.18,East,96,0.0,0.0,93,0.00,,,0.00,9,Wunderground v.1.15,2013-02-04 12:46:00,
2013-02-04 07:51:00,24.8,23.1,30.18,East,95,0.0,2.0,93,0.00,,,0.00,11,Wunderground v.1.15,2013-02-04 12:51:00,
2013-02-04 07:56:00,24.9,23.2,30.18,East,95,0.0,2.0,93,0.00,,,0.00,18,Wunderground v.1.15,2013-02-04 12:56:00,
2013-02-04 08:01:00,25.1,23.4,30.18,East,95,0.0,1.0,93,0.00,,,0.00,19,Wunderground v.1.15,2013-02-04 13:01:00,
2013-02-04 08:06:00,25.2,23.5,30.18,East,95,0.0,1.0,93,0.00,,,0.00,26,Wunderground v.1.15,2013-02-04 13:06:00,
2013-02-04 08:11:00,25.3,23.6,30.20,East,95,0.0,1.0,93,0.00,,,0.00,28,Wunderground v.1.15,2013-02-04 13:11:00,
2013-02-04 08:16:00,25.5,23.8,30.20,East,95,0.0,2.0,93,0.00,,,0.00,30,Wunderground v.1.15,2013-02-04 13:16:00,
2013-02-04 08:21:00,25.6,23.9,30.21,East,95,0.0,0.0,93,0.00,,,0.00,33,Wunderground v.1.15,2013-02-04 13:21:00,
2013-02-04 08:27:00,25.8,24.3,30.21,East,95,0.0,1.0,94,0.00,,,0.00,44,Wunderground v.1.15,2013-02-04 13:27:00,
2013-02-04 08:32:00,25.9,24.4,30.21,East,95,0.0,0.0,94,0.00,,,0.00,44,Wunderground v.1.15,2013-02-04 13:32:00,
2013-02-04 08:37:00,26.1,24.6,30.20,East,95,0.0,0.0,94,0.00,,,0.00,53,Wunderground v.1.15,2013-02-04 13:37:00,
2013-02-04 08:42:00,26.2,24.7,30.21,East,95,0.0,0.0,94,0.00,,,0.00,58,Wunderground v.1.15,2013-02-04 13:42:00,
2013-02-04 08:47:00,26.4,24.9,30.21,East,95,1.0,1.0,94,0.00,,,0.00,60,Wunderground v.1.15,2013-02-04 13:47:00,
2013-02-04 08:52:00,26.6,25.1,30.21,East,95,0.0,1.0,94,0.00,,,0.00,69,Wunderground v.1.15,2013-02-04 13:52:00,
2013-02-04 08:57:00,26.8,25.3,30.21,East,95,0.0,2.0,94,0.00,,,0.00,86,Wunderground v.1.15,2013-02-04 13:57:00,
2013-02-04 09:02:00,27.0,25.5,30.20,East,95,0.0,1.0,94,0.00,,,0.00,74,Wunderground v.1.15,2013-02-04 14:02:00,
2013-02-04 09:07:00,27.1,25.6,30.20,East,95,0.0,2.0,94,0.00,,,0.00,77,Wunderground v.1.15,2013-02-04 14:07:00,
2013-02-04 09:12:00,27.4,25.9,30.20,ENE,75,0.0,2.0,94,0.00,,,0.00,100,Wunderground v.1.15,2013-02-04 14:12:00,
2013-02-04 09:17:00,27.6,25.8,30.21,ENE,75,0.0,2.0,93,0.00,,,0.00,125,Wunderground v.1.15,2013-02-04 14:17:00,
2013-02-04 09:22:00,27.8,26.0,30.22,ENE,75,0.0,0.0,93,0.00,,,0.00,148,Wunderground v.1.15,2013-02-04 14:22:00,
2013-02-04 09:27:00,28.0,26.2,30.22,ENE,75,0.0,1.0,93,0.00,,,0.00,158,Wunderground v.1.15,2013-02-04 14:27:00,
2013-02-04 09:32:00,28.3,26.5,30.22,ENE,75,0.0,0.0,93,0.00,,,0.00,142,Wunderground v.1.15,2013-02-04 14:32:00,
2013-02-04 09:37:00,28.5,26.7,30.22,ENE,75,0.0,0.0,93,0.00,,,0.00,167,Wunderground v.1.15,2013-02-04 14:37:00,
2013-02-04 09:42:00,28.9,27.1,30.23,ENE,75,0.0,1.0,93,0.00,,,0.00,174,Wunderground v.1.15,2013-02-04 14:42:00,
2013-02-04 09:47:00,29.1,27.3,30.23,ENE,75,1.0,2.0,93,0.00,,,0.00,188,Wunderground v.1.15,2013-02-04 14:47:00,
2013-02-04 09:52:00,29.4,27.4,30.23,ENE,75,0.0,0.0,92,0.00,,,0.00,207,Wunderground v.1.15,2013-02-04 14:52:00,
2013-02-04 09:57:00,29.7,27.7,30.23,ENE,75,0.0,1.0,92,0.00,,,0.00,216,Wunderground v.1.15,2013-02-04 14:57:00,
2013-02-04 10:02:00,29.9,27.9,30.23,ENE,75,0.0,1.0,92,0.00,,,0.00,237,Wunderground v.1.15,2013-02-04 15:02:00,
2013-02-04 10:07:00,30.3,28.3,30.23,ENE,75,0.0,2.0,92,0.00,,,0.00,172,Wunderground v.1.15,2013-02-04 15:07:00,
2013-02-04 10:12:00,30.6,28.3,30.23,ENE,74,0.0,2.0,91,0.00,,,0.00,169,Wunderground v.1.15,2013-02-04 15:12:00,
2013-02-04 10:17:00,30.8,28.5,30.23,ENE,74,0.0,2.0,91,0.00,,,0.00,204,Wunderground v.1.15,2013-02-04 15:17:00,
2013-02-04 10:22:00,31.0,28.4,30.23,ENE,74,0.0,1.0,90,0.00,,,0.00,200,Wunderground v.1.15,2013-02-04 15:22:00,
2013-02-04 10:27:00,31.3,28.4,30.22,ENE,75,0.0,2.0,89,0.00,,,0.00,178,Wunderground v.1.15,2013-02-04 15:27:00,
2013-02-04 10:32:00,31.7,28.6,30.22,ENE,77,0.0,1.0,88,0.00,,,0.00,202,Wunderground v.1.15,2013-02-04 15:32:00,
2013-02-04 10:38:00,32.1,28.7,30.21,ENE,77,1.0,3.0,87,0.00,,,0.00,237,Wunderground v.1.15,2013-02-04 15:38:00,
2013-02-04 10:43:00,32.5,28.5,30.21,ENE,77,0.0,1.0,85,0.00,,,0.00,218,Wunderground v.1.15,2013-02-04 15:43:00,
2013-02-04 10:48:00,32.8,28.5,30.22,ENE,77,0.0,1.0,84,0.00,,,0.00,287,Wunderground v.1.15,2013-02-04 15:48:00,
2013-02-04 10:53:00,33.2,28.6,30.22,ENE,77,0.0,1.0,83,0.00,,,0.00,348,Wunderground v.1.15,2013-02-04 15:53:00,
2013-02-04 10:58:00,33.7,28.5,30.21,NE,51,2.0,2.0,81,0.00,,,0.00,323,Wunderground v.1.15,2013-02-04 15:58:00,
2013-02-04 11:03:00,34.1,28.0,30.22,NE,54,0.0,1.0,78,0.00,,,0.00,387,Wunderground v.1.15,2013-02-04 16:03:00,
2013-02-04 11:08:00,34.5,28.3,30.21,ENE,72,0.0,3.0,78,0.00,,,0.00,396,Wunderground v.1.15,2013-02-04 16:08:00,
2013-02-04 11:13:00,34.9,28.1,30.21,ENE,66,0.0,3.0,76,0.00,,,0.00,369,Wunderground v.1.15,2013-02-04 16:13:00,
2013-02-04 11:18:00,35.4,28.6,30.21,ESE,109,0.0,4.0,76,0.00,,,0.00,316,Wunderground v.1.15,2013-02-04 16:18:00,
2013-02-04 11:23:00,35.8,29.0,30.21,ENE,76,0.0,2.0,76,0.00,,,0.00,297,Wunderground v.1.15,2013-02-04 16:23:00,
2013-02-04 11:28:00,36.1,28.9,30.21,ENE,71,0.0,2.0,75,0.00,,,0.00,272,Wunderground v.1.15,2013-02-04 16:28:00,
2013-02-04 11:33:00,36.4,28.9,30.20,ENE,71,0.0,2.0,74,0.00,,,0.00,278,Wunderground v.1.15,2013-02-04 16:33:00,
2013-02-04 11:38:00,36.5,28.7,30.20,ENE,71,1.0,2.0,73,0.00,,,0.00,288,Wunderground v.1.15,2013-02-04 16:38:00,
2013-02-04 11:43:00,36.8,28.6,30.20,ENE,71,0.0,1.0,72,0.00,,,0.00,276,Wunderground v.1.15,2013-02-04 16:43:00,
2013-02-04 11:48:00,37.0,28.8,30.20,ENE,71,0.0,1.0,72,0.00,,,0.00,276,Wunderground v.1.15,2013-02-04 16:48:00,
2013-02-04 11:53:00,37.3,29.1,30.20,ENE,71,0.0,1.0,72,0.00,,,0.00,244,Wunderground v.1.15,2013-02-04 16:53:00,
2013-02-04 11:58:00,37.5,29.3,30.19,ENE,70,2.0,3.0,72,0.00,,,0.00,257,Wunderground v.1.15,2013-02-04 16:58:00,
2013-02-04 12:03:00,37.6,28.3,30.19,ENE,63,0.0,2.0,69,0.00,,,0.00,330,Wunderground v.1.15,2013-02-04 17:03:00,
2013-02-04 12:08:00,37.8,28.9,30.19,ENE,63,0.0,2.0,70,0.00,,,0.00,390,Wunderground v.1.15,2013-02-04 17:08:00,
2013-02-04 12:13:00,38.2,29.3,30.18,ENE,59,0.0,1.0,70,0.00,,,0.00,461,Wunderground v.1.15,2013-02-04 17:13:00,
2013-02-04 12:18:00,38.6,29.3,30.18,NNE,33,2.0,4.0,69,0.00,,,0.00,452,Wunderground v.1.15,2013-02-04 17:18:00,
2013-02-04 12:23:00,38.9,29.2,30.18,NNE,33,2.0,2.0,68,0.00,,,0.00,468,Wunderground v.1.15,2013-02-04 17:23:00,
2013-02-04 12:28:00,39.4,29.0,30.18,SE,134,0.0,4.0,66,0.00,,,0.00,401,Wunderground v.1.15,2013-02-04 17:28:00,
2013-02-04 12:33:00,39.7,28.9,30.17,SE,134,0.0,1.0,65,0.00,,,0.00,360,Wunderground v.1.15,2013-02-04 17:33:00,
2013-02-04 12:38:00,40.2,29.4,30.17,SE,134,0.0,1.0,65,0.00,,,0.00,353,Wunderground v.1.15,2013-02-04 17:38:00,
2013-02-04 12:43:00,40.6,30.1,30.17,SE,134,0.0,1.0,66,0.00,,,0.00,378,Wunderground v.1.15,2013-02-04 17:43:00,
2013-02-04 12:48:00,40.9,30.0,30.16,SE,134,0.0,1.0,65,0.00,,,0.00,362,Wunderground v.1.15,2013-02-04 17:48:00,
2013-02-04 12:53:00,41.3,29.6,30.15,SE,134,0.0,1.0,63,0.00,,,0.00,316,Wunderground v.1.15,2013-02-04 17:53:00,
2013-02-04 12:58:00,41.6,29.9,30.15,SE,134,0.0,2.0,63,0.00,,,0.00,341,Wunderground v.1.15,2013-02-04 17:58:00,
2013-02-04 13:04:00,41.9,29.8,30.15,ESE,113,1.0,5.0,62,0.00,,,0.00,334,Wunderground v.1.15,2013-02-04 18:04:00,
2013-02-04 13:08:00,42.0,29.9,30.15,ESE,113,0.0,5.0,62,0.00,,,0.00,327,Wunderground v.1.15,2013-02-04 18:08:00,
2013-02-04 13:14:00,42.3,30.2,30.15,ESE,113,0.0,1.0,62,0.00,,,0.00,320,Wunderground v.1.15,2013-02-04 18:14:00,
2013-02-04 13:19:00,42.6,28.8,30.15,SE,146,2.0,5.0,58,0.00,,,0.00,329,Wunderground v.1.15,2013-02-04 18:19:00,
2013-02-04 13:24:00,42.8,29.9,30.14,SE,124,2.0,6.0,60,0.00,,,0.00,387,Wunderground v.1.15,2013-02-04 18:24:00,
2013-02-04 13:29:00,42.9,28.7,30.13,SE,125,2.0,7.0,57,0.00,,,0.00,353,Wunderground v.1.15,2013-02-04 18:29:00,
2013-02-04 13:34:00,43.1,28.9,30.13,SE,141,0.0,9.0,57,0.00,,,0.00,362,Wunderground v.1.15,2013-02-04 18:34:00,
2013-02-04 13:39:00,43.4,29.6,30.11,ESE,108,2.0,9.0,58,0.00,,,0.00,346,Wunderground v.1.15,2013-02-04 18:39:00,
2013-02-04 13:44:00,43.6,29.8,30.10,SE,143,4.0,6.0,58,0.00,,,0.00,353,Wunderground v.1.15,2013-02-04 18:44:00,
2013-02-04 13:49:00,43.9,30.1,30.12,SW,221,2.0,6.0,58,0.00,,,0.00,301,Wunderground v.1.15,2013-02-04 18:49:00,
2013-02-04 13:54:00,43.9,28.8,30.11,ENE,70,4.0,6.0,55,0.00,,,0.00,304,Wunderground v.1.15,2013-02-04 18:54:00,
2013-02-04 13:59:00,44.0,29.3,30.13,NW,307,2.0,6.0,56,0.00,,,0.00,322,Wunderground v.1.15,2013-02-04 18:59:00,
2013-02-04 14:04:00,44.2,29.0,30.13,NW,310,2.0,3.0,55,0.00,,,0.00,292,Wunderground v.1.15,2013-02-04 19:04:00,
2013-02-04 14:09:00,44.4,28.8,30.12,WNW,300,0.0,4.0,54,0.00,,,0.00,301,Wunderground v.1.15,2013-02-04 19:09:00,
2013-02-04 14:14:00,44.6,28.5,30.11,WNW,300,0.0,2.0,53,0.00,,,0.00,295,Wunderground v.1.15,2013-02-04 19:14:00,
2013-02-04 14:19:00,44.8,29.6,30.12,SE,130,0.0,4.0,55,0.00,,,0.00,288,Wunderground v.1.15,2013-02-04 19:19:00,
2013-02-04 14:24:00,45.0,28.9,30.12,SE,138,0.0,2.0,53,0.00,,,0.00,251,Wunderground v.1.15,2013-02-04 19:24:00,
2013-02-04 14:29:00,45.1,29.9,30.11,WNW,290,0.0,4.0,55,0.00,,,0.00,265,Wunderground v.1.15,2013-02-04 19:29:00,
2013-02-04 14:34:00,45.2,28.6,30.11,WNW,290,0.0,3.0,52,0.00,,,0.00,302,Wunderground v.1.15,2013-02-04 19:34:00,
2013-02-04 14:39:00,45.3,29.2,30.11,WNW,290,0.0,3.0,53,0.00,,,0.00,325,Wunderground v.1.15,2013-02-04 19:39:00,
2013-02-04 14:44:00,45.6,29.0,30.11,WNW,290,0.0,1.0,52,0.00,,,0.00,297,Wunderground v.1.15,2013-02-04 19:44:00,
2013-02-04 14:49:00,45.9,29.2,30.11,South,171,1.0,4.0,52,0.00,,,0.00,297,Wunderground v.1.15,2013-02-04 19:49:00,
2013-02-04 14:54:00,46.0,29.3,30.11,South,174,0.0,4.0,52,0.00,,,0.00,285,Wunderground v.1.15,2013-02-04 19:54:00,
2013-02-04 14:59:00,46.2,29.1,30.11,NNE,24,1.0,4.0,51,0.00,,,0.00,269,Wunderground v.1.15,2013-02-04 19:59:00,
2013-02-04 15:04:00,46.3,28.7,30.11,NW,325,3.0,3.0,50,0.00,,,0.00,246,Wunderground v.1.15,2013-02-04 20:04:00,
2013-02-04 15:10:00,46.4,29.2,30.11,NW,325,0.0,1.0,51,0.00,,,0.00,244,Wunderground v.1.15,2013-02-04 20:10:00,
2013-02-04 15:15:00,46.5,29.3,30.11,NW,306,0.0,3.0,51,0.00,,,0.00,225,Wunderground v.1.15,2013-02-04 20:15:00,
2013-02-04 15:20:00,46.6,29.4,30.11,NNW,336,3.0,3.0,51,0.00,,,0.00,195,Wunderground v.1.15,2013-02-04 20:20:00,
2013-02-04 15:25:00,46.5,28.8,30.11,NNW,337,0.0,3.0,50,0.00,,,0.00,246,Wunderground v.1.15,2013-02-04 20:25:00,
2013-02-04 15:30:00,46.6,29.9,30.11,NNW,337,0.0,0.0,52,0.00,,,0.00,206,Wunderground v.1.15,2013-02-04 20:30:00,
2013-02-04 15:35:00,46.7,29.5,30.10,NE,35,0.0,1.0,51,0.00,,,0.00,200,Wunderground v.1.15,2013-02-04 20:35:00,
2013-02-04 15:40:00,46.7,29.0,30.10,NE,34,0.0,0.0,50,0.00,,,0.00,179,Wunderground v.1.15,2013-02-04 20:40:00,
2013-02-04 15:45:00,46.8,29.6,30.10,NE,34,0.0,0.0,51,0.00,,,0.00,172,Wunderground v.1.15,2013-02-04 20:45:00,
2013-02-04 15:50:00,46.9,30.2,30.10,NE,34,0.0,0.0,52,0.00,,,0.00,172,Wunderground v.1.15,2013-02-04 20:50:00,
2013-02-04 15:55:00,47.0,30.3,30.10,NE,34,0.0,0.0,52,0.00,,,0.00,167,Wunderground v.1.15,2013-02-04 20:55:00,
2013-02-04 16:00:00,47.2,30.0,30.10,NE,34,0.0,0.0,51,0.00,,,0.00,176,Wunderground v.1.15,2013-02-04 21:00:00,
2013-02-04 16:05:00,47.3,30.5,30.10,NE,34,0.0,0.0,52,0.00,,,0.00,174,Wunderground v.1.15,2013-02-04 21:05:00,
2013-02-04 16:10:00,47.4,30.2,30.09,NE,34,0.0,0.0,51,0.00,,,0.00,125,Wunderground v.1.15,2013-02-04 21:10:00,
2013-02-04 16:15:00,47.5,30.3,30.09,NE,34,0.0,1.0,51,0.00,,,0.00,127,Wunderground v.1.15,2013-02-04 21:15:00,
2013-02-04 16:20:00,47.5,30.7,30.09,NE,34,0.0,0.0,52,0.00,,,0.00,141,Wunderground v.1.15,2013-02-04 21:20:00,
2013-02-04 16:25:00,47.5,30.7,30.09,NE,34,0.0,0.0,52,0.00,,,0.00,151,Wunderground v.1.15,2013-02-04 21:25:00,
2013-02-04 16:30:00,47.6,31.8,30.09,NE,34,0.0,0.0,54,0.00,,,0.00,142,Wunderground v.1.15,2013-02-04 21:30:00,
2013-02-04 16:35:00,47.6,31.3,30.09,NE,34,0.0,0.0,53,0.00,,,0.00,130,Wunderground v.1.15,2013-02-04 21:35:00,
2013-02-04 16:40:00,47.7,31.4,30.09,NE,34,0.0,0.0,53,0.00,,,0.00,128,Wunderground v.1.15,2013-02-04 21:40:00,
2013-02-04 16:45:00,47.7,31.4,30.09,NE,34,0.0,1.0,53,0.00,,,0.00,128,Wunderground v.1.15,2013-02-04 21:45:00,
2013-02-04 16:50:00,47.8,31.5,30.09,NE,34,0.0,0.0,53,0.00,,,0.00,128,Wunderground v.1.15,2013-02-04 21:50:00,
2013-02-04 16:55:00,47.8,31.5,30.09,NE,34,0.0,0.0,53,0.00,,,0.00,120,Wunderground v.1.15,2013-02-04 21:55:00,
2013-02-04 17:01:00,47.9,32.0,30.09,NE,34,0.0,0.0,54,0.00,,,0.00,100,Wunderground v.1.15,2013-02-04 22:01:00,
2013-02-04 17:06:00,48.0,32.1,30.09,NE,34,0.0,0.0,54,0.00,,,0.00,77,Wunderground v.1.15,2013-02-04 22:06:00,
2013-02-04 17:11:00,47.9,31.6,30.09,NE,34,0.0,0.0,53,0.00,,,0.00,65,Wunderground v.1.15,2013-02-04 22:11:00,
2013-02-04 17:16:00,47.9,31.6,30.09,NE,34,0.0,0.0,53,0.00,,,0.00,54,Wunderground v.1.15,2013-02-04 22:16:00,
2013-02-04 17:21:00,47.7,30.9,30.09,NE,34,0.0,0.0,52,0.00,,,0.00,40,Wunderground v.1.15,2013-02-04 22:21:00,
2013-02-04 17:26:00,47.5,34.7,30.09,NE,34,0.0,0.0,61,0.00,,,0.00,33,Wunderground v.1.15,2013-02-04 22:26:00,
2013-02-04 17:31:00,46.9,34.1,30.09,NE,34,0.0,0.0,61,0.00,,,0.00,26,Wunderground v.1.15,2013-02-04 22:31:00,
2013-02-04 17:36:00,46.1,34.2,30.08,NE,34,0.0,1.0,63,0.00,,,0.00,25,Wunderground v.1.15,2013-02-04 22:36:00,
2013-02-04 17:41:00,45.3,33.0,30.08,NE,34,0.0,0.0,62,0.00,,,0.00,28,Wunderground v.1.15,2013-02-04 22:41:00,
2013-02-04 17:46:00,44.7,32.9,30.08,NE,34,0.0,0.0,63,0.00,,,0.00,23,Wunderground v.1.15,2013-02-04 22:46:00,
2013-02-04 17:51:00,44.5,33.8,30.08,NE,34,0.0,0.0,66,0.00,,,0.00,19,Wunderground v.1.15,2013-02-04 22:51:00,
2013-02-04 17:56:00,44.5,33.8,30.08,NE,34,0.0,0.0,66,0.00,,,0.00,12,Wunderground v.1.15,2013-02-04 22:56:00,
2013-02-04 18:01:00,44.3,34.0,30.08,NE,34,0.0,0.0,67,0.00,,,0.00,9,Wunderground v.1.15,2013-02-04 23:01:00,
2013-02-04 18:06:00,44.0,33.4,30.08,NE,34,0.0,0.0,66,0.00,,,0.00,7,Wunderground v.1.15,2013-02-04 23:06:00,
2013-02-04 18:11:00,43.7,32.7,30.08,NE,34,0.0,0.0,65,0.00,,,0.00,5,Wunderground v.1.15,2013-02-04 23:11:00,
2013-02-04 18:16:00,43.3,32.3,30.09,NE,34,0.0,0.0,65,0.00,,,0.00,0,Wunderground v.1.15,2013-02-04 23:16:00,
2013-02-04 18:21:00,42.8,32.2,30.09,NE,34,0.0,0.0,66,0.00,,,0.00,0,Wunderground v.1.15,2013-02-04 23:21:00,
2013-02-04 18:26:00,42.2,31.3,30.09,NE,34,0.0,0.0,65,0.00,,,0.00,0,Wunderground v.1.15,2013-02-04 23:26:00,
2013-02-04 18:31:00,41.3,30.8,30.09,NE,34,0.0,1.0,66,0.00,,,0.00,0,Wunderground v.1.15,2013-02-04 23:31:00,
2013-02-04 18:36:00,40.6,30.9,30.09,NE,34,0.0,1.0,68,0.00,,,0.00,0,Wunderground v.1.15,2013-02-04 23:36:00,
2013-02-04 18:41:00,39.9,30.5,30.09,NE,34,0.0,0.0,69,0.00,,,0.00,0,Wunderground v.1.15,2013-02-04 23:41:00,
2013-02-04 18:46:00,39.7,30.7,30.09,NE,34,0.0,0.0,70,0.00,,,0.00,0,Wunderground v.1.15,2013-02-04 23:46:00,
2013-02-04 18:51:00,39.6,31.0,30.09,NE,34,0.0,0.0,71,0.00,,,0.00,0,Wunderground v.1.15,2013-02-04 23:51:00,
2013-02-04 18:56:00,39.3,31.4,30.09,NE,34,0.0,0.0,73,0.00,,,0.00,0,Wunderground v.1.15,2013-02-04 23:56:00,
2013-02-04 19:01:00,39.0,31.4,30.09,NE,34,0.0,0.0,74,0.00,,,0.00,0,Wunderground v.1.15,2013-02-05 00:01:00,
2013-02-04 19:06:00,38.8,31.2,30.09,NE,34,0.0,0.0,74,0.00,,,0.00,0,Wunderground v.1.15,2013-02-05 00:06:00,
2013-02-04 19:11:00,38.7,31.8,30.10,NE,34,0.0,0.0,76,0.00,,,0.00,0,Wunderground v.1.15,2013-02-05 00:11:00,
2013-02-04 19:16:00,38.6,32.0,30.10,NE,34,0.0,1.0,77,0.00,,,0.00,0,Wunderground v.1.15,2013-02-05 00:16:00,
2013-02-04 19:21:00,38.4,31.8,30.10,NE,34,0.0,0.0,77,0.00,,,0.00,0,Wunderground v.1.15,2013-02-05 00:21:00,
2013-02-04 19:26:00,38.2,31.6,30.10,NE,34,0.0,0.0,77,0.00,,,0.00,0,Wunderground v.1.15,2013-02-05 00:26:00,
2013-02-04 19:31:00,38.1,31.8,30.10,NE,34,0.0,0.0,78,0.00,,,0.00,0,Wunderground v.1.15,2013-02-05 00:31:00,
2013-02-04 19:36:00,38.0,32.1,30.10,NE,34,0.0,0.0,79,0.00,,,0.00,0,Wunderground v.1.15,2013-02-05 00:36:00,
2013-02-04 19:41:00,37.9,32.0,30.10,NE,34,0.0,0.0,79,0.00,,,0.00,0,Wunderground v.1.15,2013-02-05 00:41:00,
2013-02-04 19:46:00,37.8,32.2,30.10,NE,34,0.0,0.0,80,0.00,,,0.00,0,Wunderground v.1.15,2013-02-05 00:46:00,
2013-02-04 19:51:00,37.7,32.4,30.11,NE,34,0.0,0.0,81,0.00,,,0.00,0,Wunderground v.1.15,2013-02-05 00:51:00,
2013-02-04 19:56:00,37.7,32.1,30.10,NE,34,0.0,0.0,80,0.00,,,0.00,0,Wunderground v.1.15,2013-02-05 00:56:00,
2013-02-04 20:01:00,37.6,32.0,30.11,NE,34,0.0,0.0,80,0.00,,,0.00,0,Wunderground v.1.15,2013-02-05 01:01:00,
2013-02-04 20:06:00,37.6,32.0,30.11,NE,34,0.0,0.0,80,0.00,,,0.00,0,Wunderground v.1.15,2013-02-05 01:06:00,
2013-02-04 20:11:00,37.6,32.3,30.11,NE,34,0.0,0.0,81,0.00,,,0.00,0,Wunderground v.1.15,2013-02-05 01:11:00,
2013-02-04 20:16:00,37.6,32.3,30.11,NE,34,0.0,0.0,81,0.00,,,0.00,0,Wunderground v.1.15,2013-02-05 01:16:00,
2013-02-04 20:21:00,37.6,32.3,30.11,NE,34,0.0,0.0,81,0.00,,,0.00,0,Wunderground v.1.15,2013-02-05 01:21:00,
2013-02-04 20:26:00,37.5,32.2,30.11,NE,34,0.0,0.0,81,0.00,,,0.00,0,Wunderground v.1.15,2013-02-05 01:26:00,
2013-02-04 20:31:00,37.5,32.2,30.11,NE,34,0.0,0.0,81,0.00,,,0.00,0,Wunderground v.1.15,2013-02-05 01:31:00,
2013-02-04 20:36:00,37.4,31.8,30.11,NE,34,0.0,0.0,80,0.00,,,0.00,0,Wunderground v.1.15,2013-02-05 01:36:00,
2013-02-04 20:41:00,37.3,32.0,30.11,NE,34,0.0,0.0,81,0.00,,,0.00,0,Wunderground v.1.15,2013-02-05 01:41:00,
2013-02-04 20:46:00,37.2,32.2,30.11,NE,34,0.0,0.0,82,0.00,,,0.00,0,Wunderground v.1.15,2013-02-05 01:46:00,
2013-02-04 20:51:00,37.2,32.5,30.12,NE,34,0.0,0.0,83,0.00,,,0.00,0,Wunderground v.1.15,2013-02-05 01:51:00,
2013-02-04 20:56:00,37.1,32.4,30.12,NE,34,0.0,0.0,83,0.00,,,0.00,0,Wunderground v.1.15,2013-02-05 01:56:00,
2013-02-04 21:02:00,37.0,32.3,30.12,NE,34,0.0,0.0,83,0.00,,,0.00,0,Wunderground v.1.15,2013-02-05 02:02:00,
2013-02-04 21:07:00,37.0,32.6,30.12,NE,34,0.0,1.0,84,0.00,,,0.00,0,Wunderground v.1.15,2013-02-05 02:07:00,
2013-02-04 21:12:00,36.9,32.5,30.11,NE,34,0.0,0.0,84,0.00,,,0.00,0,Wunderground v.1.15,2013-02-05 02:12:00,
2013-02-04 21:17:00,36.8,32.1,30.11,NE,34,0.0,0.0,83,0.00,,,0.00,0,Wunderground v.1.15,2013-02-05 02:17:00,
2013-02-04 21:22:00,36.7,32.6,30.11,NE,34,0.0,0.0,85,0.00,,,0.00,0,Wunderground v.1.15,2013-02-05 02:22:00,
2013-02-04 21:27:00,36.6,32.2,30.11,NE,34,0.0,0.0,84,0.00,,,0.00,0,Wunderground v.1.15,2013-02-05 02:27:00,
2013-02-04 21:32:00,36.5,32.1,30.11,NE,34,0.0,1.0,84,0.00,,,0.00,0,Wunderground v.1.15,2013-02-05 02:32:00,
2013-02-04 21:37:00,36.5,32.1,30.11,NE,34,0.0,1.0,84,0.00,,,0.00,0,Wunderground v.1.15,2013-02-05 02:37:00,
2013-02-04 21:42:00,36.5,32.4,30.11,NE,34,0.0,0.0,85,0.00,,,0.00,0,Wunderground v.1.15,2013-02-05 02:42:00,
2013-02-04 21:47:00,36.5,32.4,30.11,NE,34,2.0,2.0,85,0.00,,,0.00,0,Wunderground v.1.15,2013-02-05 02:47:00,
2013-02-04 21:52:00,36.4,32.3,30.10,NE,34,0.0,0.0,85,0.00,,,0.00,0,Wunderground v.1.15,2013-02-05 02:52:00,
2013-02-04 21:57:00,36.5,32.4,30.10,NE,34,0.0,0.0,85,0.00,,,0.00,0,Wunderground v.1.15,2013-02-05 02:57:00,
2013-02-04 22:02:00,36.4,32.6,30.10,NE,34,0.0,0.0,86,0.00,,,0.00,0,Wunderground v.1.15,2013-02-05 03:02:00,
2013-02-04 22:07:00,36.4,32.6,30.11,NE,34,0.0,0.0,86,0.00,,,0.00,0,Wunderground v.1.15,2013-02-05 03:07:00,
2013-02-04 22:12:00,36.4,32.6,30.11,NE,34,0.0,0.0,86,0.00,,,0.00,0,Wunderground v.1.15,2013-02-05 03:12:00,
2013-02-04 22:17:00,36.3,32.5,30.11,NE,34,0.0,1.0,86,0.00,,,0.00,0,Wunderground v.1.15,2013-02-05 03:17:00,
2013-02-04 22:22:00,36.3,32.5,30.11,NE,34,0.0,0.0,86,0.00,,,0.00,0,Wunderground v.1.15,2013-02-05 03:22:00,
2013-02-04 22:27:00,36.3,32.8,30.11,NE,34,0.0,0.0,87,0.00,,,0.00,0,Wunderground v.1.15,2013-02-05 03:27:00,
2013-02-04 22:32:00,36.2,32.7,30.11,NE,34,0.0,1.0,87,0.00,,,0.00,0,Wunderground v.1.15,2013-02-05 03:32:00,
2013-02-04 22:37:00,36.2,32.7,30.10,NE,34,0.0,1.0,87,0.00,,,0.00,0,Wunderground v.1.15,2013-02-05 03:37:00,
2013-02-04 22:42:00,36.2,32.7,30.10,NE,34,0.0,0.0,87,0.00,,,0.00,0,Wunderground v.1.15,2013-02-05 03:42:00,
2013-02-04 22:47:00,36.1,32.6,30.10,NE,34,1.0,1.0,87,0.00,,,0.00,0,Wunderground v.1.15,2013-02-05 03:47:00,
2013-02-04 22:52:00,36.1,32.6,30.10,NE,34,0.0,0.0,87,0.00,,,0.00,0,Wunderground v.1.15,2013-02-05 03:52:00,
2013-02-04 22:57:00,36.0,32.5,30.10,NE,34,0.0,0.0,87,0.00,,,0.00,0,Wunderground v.1.15,2013-02-05 03:57:00,
2013-02-04 23:02:00,36.0,32.5,30.10,NE,34,0.0,0.0,87,0.00,,,0.00,0,Wunderground v.1.15,2013-02-05 04:02:00,
2013-02-04 23:07:00,36.0,32.5,30.10,NE,34,0.0,0.0,87,0.00,,,0.00,0,Wunderground v.1.15,2013-02-05 04:07:00,
2013-02-04 23:12:00,36.0,32.5,30.10,NE,34,0.0,0.0,87,0.00,,,0.00,0,Wunderground v.1.15,2013-02-05 04:12:00,
2013-02-04 23:17:00,35.9,32.4,30.10,NE,34,0.0,0.0,87,0.00,,,0.00,0,Wunderground v.1.15,2013-02-05 04:17:00,
2013-02-04 23:22:00,35.9,32.4,30.10,NE,34,0.0,1.0,87,0.00,,,0.00,0,Wunderground v.1.15,2013-02-05 04:22:00,
2013-02-04 23:27:00,35.9,32.7,30.09,NE,34,0.0,1.0,88,0.00,,,0.00,0,Wunderground v.1.15,2013-02-05 04:27:00,
2013-02-04 23:32:00,35.9,32.7,30.10,NE,34,1.0,2.0,88,0.00,,,0.00,0,Wunderground v.1.15,2013-02-05 04:32:00,
2013-02-04 23:37:00,35.9,32.7,30.09,NE,34,0.0,2.0,88,0.00,,,0.00,0,Wunderground v.1.15,2013-02-05 04:37:00,
2013-02-04 23:42:00,35.8,32.6,30.09,NE,34,0.0,0.0,88,0.00,,,0.00,0,Wunderground v.1.15,2013-02-05 04:42:00,
2013-02-04 23:47:00,35.8,32.6,30.09,NE,34,0.0,0.0,88,0.00,,,0.00,0,Wunderground v.1.15,2013-02-05 04:47:00,
2013-02-04 23:52:00,35.8,32.9,30.09,NE,34,0.0,1.0,89,0.00,,,0.00,0,Wunderground v.1.15,2013-02-05 04:52:00,
2013-02-04 23:57:00,35.7,32.8,30.09,NE,34,0.0,1.0,89,0.00,,,0.00,0,Wunderground v.1.15,2013-02-05 04:57:00,